Time;durP1;ratioP1;P1;durP2;ratioP2;P2;SDS_P1;SDS_P2;PMS_P1;PMS_P2;Temp;Humidity;BMP_temperature;BMP_pressure;BME280_temperature;BME280_humidity;BME280_pressure;Samples;Min_cycle;Max_cycle;Signal;HPM_P1;HPM_P2
2021/03/10 00:01:50;;;;;;;20.25;13.90;;;6.50;99.90;;;;;;5094597;28;20494;-81
2021/03/10 00:04:15;;;;;;;16.98;13.20;;;6.20;99.90;;;;;;5093781;28;20059;-81
2021/03/10 00:06:41;;;;;;;20.45;14.10;;;6.40;99.90;;;;;;5094057;28;20081;-81
2021/03/10 00:09:07;;;;;;;19.30;13.00;;;6.10;99.90;;;;;;5076227;28;20028;-81
2021/03/10 00:11:32;;;;;;;17.80;13.90;;;6.10;99.90;;;;;;5094610;28;20028;-81
2021/03/10 00:13:58;;;;;;;18.42;12.90;;;6.10;99.90;;;;;;5094389;28;20028;-81
2021/03/10 00:16:23;;;;;;;19.45;12.80;;;5.90;99.90;;;;;;5094292;28;20369;-81
2021/03/10 00:18:49;;;;;;;19.00;13.20;;;6.00;99.90;;;;;;5094401;28;20032;-81
2021/03/10 00:21:15;;;;;;;18.63;12.93;;;6.20;99.90;;;;;;5093546;28;20055;-82
2021/03/10 00:23:40;;;;;;;16.65;12.68;;;6.20;99.90;;;;;;5094068;28;20521;-82
2021/03/10 00:26:06;;;;;;;16.08;11.88;;;6.00;99.90;;;;;;5094240;28;20028;-81
2021/03/10 00:28:31;;;;;;;17.38;12.50;;;5.90;99.90;;;;;;5093994;28;20082;-81
2021/03/10 00:30:57;;;;;;;21.27;12.63;;;5.80;99.90;;;;;;5094267;28;20088;-81
2021/03/10 00:33:23;;;;;;;18.48;12.55;;;6.10;99.90;;;;;;5093956;28;20032;-81
2021/03/10 00:35:48;;;;;;;18.10;13.00;;;6.20;99.90;;;;;;5093518;28;20020;-81
2021/03/10 00:38:14;;;;;;;15.93;11.93;;;5.80;99.90;;;;;;5093584;28;20533;-81
2021/03/10 00:40:40;;;;;;;15.82;11.57;;;5.80;99.90;;;;;;5094138;28;20028;-81
2021/03/10 00:43:05;;;;;;;17.40;12.20;;;5.80;99.90;;;;;;5093472;28;20514;-81
2021/03/10 00:45:31;;;;;;;16.60;11.30;;;6.10;99.90;;;;;;5093827;28;20028;-81
2021/03/10 00:48:00;;;;;;;15.20;11.63;;;6.00;99.90;;;;;;5093877;28;20024;-81
2021/03/10 00:50:29;;;;;;;17.00;11.25;;;5.90;99.90;;;;;;5093027;28;20104;-81
2021/03/10 00:52:56;;;;;;;16.13;11.73;;;5.80;99.90;;;;;;5093970;28;20031;-81
2021/03/10 00:55:21;;;;;;;18.42;12.05;;;6.00;99.90;;;;;;5093929;28;20572;-81
2021/03/10 00:57:47;;;;;;;15.25;11.63;;;6.10;99.90;;;;;;5093257;28;20099;-81
2021/03/10 01:00:14;;;;;;;17.13;12.32;;;5.70;99.90;;;;;;5093402;28;20396;-81
2021/03/10 01:02:40;;;;;;;14.02;11.05;;;5.60;99.90;;;;;;5093430;28;20032;-81
2021/03/10 01:05:06;;;;;;;16.95;11.50;;;6.00;99.90;;;;;;5092630;28;20512;-81
2021/03/10 01:07:32;;;;;;;15.70;11.63;;;5.50;99.90;;;;;;5075176;28;20064;-81
2021/03/10 01:09:57;;;;;;;15.48;11.48;;;5.80;99.90;;;;;;5093571;28;20165;-81
2021/03/10 01:12:23;;;;;;;16.50;11.40;;;6.00;99.90;;;;;;5093119;28;20028;-81
2021/03/10 01:14:49;;;;;;;16.88;11.70;;;5.50;99.90;;;;;;5093356;28;20104;-81
2021/03/10 01:17:14;;;;;;;15.88;11.48;;;5.40;99.90;;;;;;5092468;28;20490;-81
2021/03/10 01:19:40;;;;;;;17.92;11.35;;;5.90;99.90;;;;;;5092560;28;20020;-81
2021/03/10 01:22:05;;;;;;;16.55;11.50;;;5.70;99.90;;;;;;5093371;28;20464;-81
2021/03/10 01:24:31;;;;;;;18.58;12.98;;;6.00;99.90;;;;;;5093577;28;20073;-81
2021/03/10 01:26:57;;;;;;;19.33;13.15;;;5.20;99.90;;;;;;5092928;28;20111;-81
2021/03/10 01:29:22;;;;;;;18.55;12.57;;;5.40;99.90;;;;;;5093038;28;20055;-81
2021/03/10 01:31:48;;;;;;;15.82;11.95;;;5.80;99.90;;;;;;5093134;28;20099;-81
2021/03/10 01:34:14;;;;;;;18.58;11.52;;;5.20;99.90;;;;;;5092892;28;20020;-81
2021/03/10 01:36:40;;;;;;;15.93;11.57;;;5.50;99.90;;;;;;5093149;28;20051;-81
2021/03/10 01:39:06;;;;;;;15.23;10.90;;;5.10;99.90;;;;;;5092886;28;20024;-81
2021/03/10 01:41:31;;;;;;;15.75;11.95;;;5.40;99.90;;;;;;5092426;28;20077;-81
2021/03/10 01:43:57;;;;;;;15.77;12.00;;;5.60;99.90;;;;;;5093091;28;20024;-81
2021/03/10 01:46:32;;;;;;;16.08;11.73;;;5.20;99.90;;;;;;5092532;28;20042;-81
2021/03/10 01:48:59;;;;;;;15.43;11.20;;;5.50;99.90;;;;;;5093007;28;20031;-81
2021/03/10 01:51:24;;;;;;;16.02;11.48;;;5.10;99.90;;;;;;5092882;28;20056;-81
2021/03/10 01:53:50;;;;;;;16.52;11.30;;;5.10;99.90;;;;;;5092846;28;20564;-81
2021/03/10 01:56:18;;;;;;;17.23;11.70;;;5.70;99.90;;;;;;5092615;28;20544;-81
2021/03/10 01:58:44;;;;;;;18.27;13.35;;;5.80;99.90;;;;;;5093004;28;20031;-81
2021/03/10 02:01:10;;;;;;;20.60;14.90;;;5.00;99.90;;;;;;5092570;28;20047;-81
2021/03/10 02:03:35;;;;;;;21.02;14.88;;;4.30;99.90;;;;;;5092071;28;20080;-81
2021/03/10 02:06:01;;;;;;;20.23;13.93;;;4.00;99.90;;;;;;5092512;28;20034;-81
2021/03/10 02:08:30;;;;;;;21.45;13.50;;;4.10;99.90;;;;;;5092684;28;20024;-81
2021/03/10 02:11:07;;;;;;;18.55;12.77;;;4.20;99.90;;;;;;5092510;28;20035;-81
2021/03/10 02:14:14;;;;;;;18.25;12.63;;;4.60;99.90;;;;;;5092873;28;20052;-81
2021/03/10 02:16:54;;;;;;;20.98;12.95;;;4.70;99.90;;;;;;4991016;28;20451;-81
2021/03/10 02:19:28;;;;;;;15.65;12.05;;;4.40;99.90;;;;;;4990896;28;20398;-81
2021/03/10 02:22:31;;;;;;;17.00;11.43;;;4.70;99.90;;;;;;4991470;28;20042;-81
2021/03/10 02:25:03;;;;;;;17.02;10.82;;;4.30;99.90;;;;;;4990937;28;20027;-81
2021/03/10 02:27:32;;;;;;;15.63;11.85;;;4.50;99.90;;;;;;4992479;28;20141;-81
2021/03/10 02:30:25;;;;;;;15.48;11.25;;;4.20;99.90;;;;;;4994877;28;20061;-81
2021/03/10 02:32:57;;;;;;;15.93;11.32;;;4.30;99.90;;;;;;4978153;28;20444;-81
2021/03/10 02:35:24;;;;;;;14.57;10.98;;;4.60;99.90;;;;;;4983204;28;20038;-81
2021/03/10 02:37:53;;;;;;;17.13;11.82;;;4.70;99.90;;;;;;4994489;28;20033;-81
2021/03/10 02:40:22;;;;;;;17.75;12.85;;;4.40;99.90;;;;;;4994869;28;20078;-81
2021/03/10 02:42:49;;;;;;;17.48;12.80;;;4.70;99.90;;;;;;4994369;28;20029;-81
2021/03/10 02:45:15;;;;;;;16.42;11.70;;;4.30;99.90;;;;;;4994657;28;20033;-81
2021/03/10 02:47:42;;;;;;;16.45;11.93;;;3.70;99.90;;;;;;4993982;28;20050;-81
2021/03/10 02:50:09;;;;;;;16.15;11.25;;;3.80;99.90;;;;;;4994267;28;20034;-81
2021/03/10 02:52:36;;;;;;;16.35;11.52;;;3.90;99.90;;;;;;4996117;28;20049;-81
2021/03/10 02:55:02;;;;;;;16.88;11.10;;;3.80;99.90;;;;;;5095661;28;20035;-81
2021/03/10 02:57:29;;;;;;;15.63;11.20;;;3.90;99.90;;;;;;5095984;28;20102;-81
2021/03/10 02:59:57;;;;;;;15.65;11.23;;;4.50;99.90;;;;;;5095987;28;20016;-81
2021/03/10 03:02:22;;;;;;;15.60;11.35;;;3.80;99.90;;;;;;5077157;28;20387;-81
2021/03/10 03:04:48;;;;;;;15.85;11.70;;;3.80;99.90;;;;;;5095718;28;20028;-81
2021/03/10 03:07:13;;;;;;;16.85;11.80;;;3.50;99.90;;;;;;5095598;28;20089;-81
2021/03/10 03:09:39;;;;;;;17.83;12.05;;;3.50;99.90;;;;;;5095735;28;20047;-81
2021/03/10 03:12:07;;;;;;;14.90;11.55;;;3.50;99.90;;;;;;5095779;28;20099;-81
2021/03/10 03:14:37;;;;;;;14.68;11.05;;;3.30;99.90;;;;;;5095465;28;20111;-81
2021/03/10 03:17:04;;;;;;;16.25;11.02;;;3.40;99.90;;;;;;5094968;28;20020;-81
2021/03/10 03:19:29;;;;;;;17.63;10.90;;;3.50;99.90;;;;;;5095344;28;20016;-81
2021/03/10 03:21:58;;;;;;;14.40;10.40;;;4.10;99.90;;;;;;5095500;28;20031;-81
2021/03/10 03:24:25;;;;;;;14.07;10.77;;;3.60;99.90;;;;;;5077322;28;20016;-81
2021/03/10 03:26:51;;;;;;;16.40;10.85;;;3.60;99.90;;;;;;5095333;28;20020;-81
2021/03/10 03:29:18;;;;;;;18.05;11.73;;;3.60;99.90;;;;;;5095334;28;20024;-81
2021/03/10 03:31:45;;;;;;;18.73;13.00;;;3.50;99.90;;;;;;5095048;28;20165;-81
2021/03/10 03:34:11;;;;;;;23.33;15.13;;;3.60;99.90;;;;;;5095239;28;20021;-81
2021/03/10 03:36:37;;;;;;;23.95;14.60;;;4.00;99.90;;;;;;5094598;28;20074;-81
2021/03/10 03:39:05;;;;;;;18.90;12.65;;;3.50;99.90;;;;;;5094419;28;20016;-81
2021/03/10 03:41:33;;;;;;;17.20;12.30;;;3.50;99.90;;;;;;5094493;28;20078;-81
2021/03/10 03:44:00;;;;;;;19.23;12.32;;;3.50;99.90;;;;;;5076981;28;20020;-81
2021/03/10 03:46:26;;;;;;;17.85;12.98;;;3.40;99.90;;;;;;5094556;28;20063;-81
2021/03/10 03:49:00;;;;;;;21.83;14.48;;;3.50;99.90;;;;;;5076587;28;20400;-81
2021/03/10 03:51:31;;;;;;;22.33;14.27;;;3.30;99.90;;;;;;5094676;28;20400;-81
2021/03/10 03:54:04;;;;;;;17.90;12.38;;;3.30;99.90;;;;;;5094727;28;20035;-81
2021/03/10 03:56:30;;;;;;;17.30;12.00;;;3.30;99.90;;;;;;5094934;28;20020;-81
2021/03/10 03:58:56;;;;;;;17.27;11.90;;;3.10;99.90;;;;;;5094733;28;20024;-81
2021/03/10 04:01:23;;;;;;;17.73;11.93;;;3.40;99.90;;;;;;5094424;28;20077;-81
2021/03/10 04:03:49;;;;;;;15.80;11.32;;;3.10;99.90;;;;;;5094357;28;20185;-81
2021/03/10 04:06:16;;;;;;;14.45;10.95;;;3.10;99.90;;;;;;5094279;28;20543;-81
2021/03/10 04:08:43;;;;;;;15.60;10.70;;;3.30;99.90;;;;;;5094692;28;20477;-81
2021/03/10 04:11:14;;;;;;;16.00;11.20;;;3.20;99.90;;;;;;5076428;28;20177;-81
2021/03/10 04:13:40;;;;;;;16.73;11.05;;;3.10;99.90;;;;;;5094312;28;20024;-81
2021/03/10 04:16:07;;;;;;;15.02;10.23;;;3.00;99.90;;;;;;5093751;28;20467;-81
2021/03/10 04:18:35;;;;;;;17.83;11.02;;;3.10;99.90;;;;;;5078287;28;20024;-81
2021/03/10 04:21:00;;;;;;;15.75;10.98;;;3.00;99.90;;;;;;5073738;28;20024;-81
2021/03/10 04:23:26;;;;;;;14.48;10.93;;;3.10;99.90;;;;;;5074208;28;20697;-81
2021/03/10 04:25:52;;;;;;;14.30;10.57;;;3.10;99.90;;;;;;5073816;28;20032;-81
2021/03/10 04:28:17;;;;;;;15.52;11.25;;;3.10;99.90;;;;;;5074178;28;20032;-81
2021/03/10 04:30:43;;;;;;;16.88;10.70;;;3.00;99.90;;;;;;5075299;28;20039;-81
2021/03/10 04:33:08;;;;;;;14.75;10.38;;;3.00;99.90;;;;;;5093974;28;20031;-81
2021/03/10 04:35:34;;;;;;;17.70;11.73;;;3.00;99.90;;;;;;5093645;28;20024;-81
2021/03/10 04:37:59;;;;;;;15.80;11.30;;;2.90;99.90;;;;;;5093974;28;20020;-81
2021/03/10 04:40:25;;;;;;;15.73;11.65;;;2.80;99.90;;;;;;5094006;28;20072;-81
2021/03/10 04:42:51;;;;;;;16.50;11.45;;;2.80;99.90;;;;;;5093850;28;20016;-81
2021/03/10 04:45:17;;;;;;;13.70;10.27;;;2.90;99.90;;;;;;5093089;28;20028;-81
2021/03/10 04:47:44;;;;;;;15.13;10.75;;;2.80;99.90;;;;;;5075084;28;20036;-81
2021/03/10 04:50:11;;;;;;;15.52;10.98;;;2.80;99.90;;;;;;5092961;28;20162;-81
2021/03/10 04:52:37;;;;;;;15.23;11.32;;;3.10;99.90;;;;;;5093391;28;20023;-81
2021/03/10 04:55:05;;;;;;;17.52;11.35;;;2.60;99.90;;;;;;5075269;28;20032;-81
2021/03/10 04:57:30;;;;;;;14.95;11.20;;;2.70;99.90;;;;;;5093803;28;20105;-81
2021/03/10 04:59:56;;;;;;;17.08;11.75;;;2.70;99.90;;;;;;5093279;28;20048;-81
2021/03/10 05:02:21;;;;;;;16.42;12.10;;;2.80;99.90;;;;;;5093472;28;20111;-81
2021/03/10 05:04:47;;;;;;;15.85;11.00;;;2.90;99.90;;;;;;5093310;28;20117;-81
2021/03/10 05:07:12;;;;;;;16.80;11.63;;;2.90;99.90;;;;;;5093343;28;20028;-81
2021/03/10 05:09:38;;;;;;;17.17;12.32;;;2.70;99.90;;;;;;5093550;28;20092;-81
2021/03/10 05:12:04;;;;;;;18.42;12.70;;;3.10;99.90;;;;;;5093463;28;20017;-81
2021/03/10 05:14:30;;;;;;;17.35;12.02;;;2.70;99.90;;;;;;5090565;28;20027;-81
2021/03/10 05:16:56;;;;;;;17.92;11.98;;;2.80;99.90;;;;;;5074518;28;20020;-81
2021/03/10 05:19:21;;;;;;;18.70;11.82;;;2.80;99.90;;;;;;5080254;28;20017;-81
2021/03/10 05:21:47;;;;;;;13.88;10.75;;;2.70;99.90;;;;;;5073143;28;20099;-80
2021/03/10 05:24:12;;;;;;;17.50;11.65;;;2.80;99.90;;;;;;5073185;28;20473;-81
2021/03/10 05:26:39;;;;;;;16.13;11.77;;;2.60;99.90;;;;;;5073241;28;20024;-81
2021/03/10 05:29:06;;;;;;;14.57;11.13;;;2.50;99.90;;;;;;5073896;28;20472;-81
2021/03/10 05:31:31;;;;;;;18.42;11.32;;;2.60;99.90;;;;;;5093115;28;20024;-81
2021/03/10 05:33:57;;;;;;;15.95;12.50;;;2.70;99.90;;;;;;5092689;28;20099;-81
2021/03/10 05:36:23;;;;;;;18.88;11.77;;;2.70;99.90;;;;;;5093079;28;20473;-81
2021/03/10 05:38:49;;;;;;;17.40;11.57;;;2.60;99.90;;;;;;5092440;28;20016;-80
2021/03/10 05:41:15;;;;;;;18.42;12.98;;;2.50;99.90;;;;;;5073201;28;20095;-80
2021/03/10 05:43:47;;;;;;;18.42;12.75;;;2.40;99.90;;;;;;5072753;28;20092;-80
2021/03/10 05:46:13;;;;;;;18.55;13.00;;;2.50;99.90;;;;;;5089060;28;20039;-80
2021/03/10 05:48:39;;;;;;;16.63;12.38;;;2.50;99.90;;;;;;5093172;28;20020;-80
2021/03/10 05:51:06;;;;;;;18.98;13.13;;;2.40;99.90;;;;;;5092953;28;20054;-80
2021/03/10 05:53:37;;;;;;;16.17;12.00;;;2.40;99.90;;;;;;5093088;28;20028;-80
2021/03/10 05:56:04;;;;;;;18.65;13.57;;;2.50;99.90;;;;;;5074658;28;20395;-80
2021/03/10 05:58:30;;;;;;;17.05;12.20;;;2.60;99.90;;;;;;5093033;28;20039;-80
2021/03/10 06:00:56;;;;;;;18.88;13.13;;;2.50;99.90;;;;;;5091276;28;20105;-80
2021/03/10 06:03:21;;;;;;;17.92;12.65;;;2.50;99.90;;;;;;5092954;28;20047;-80
2021/03/10 06:06:01;;;;;;;23.05;13.13;;;2.70;99.90;;;;;;5096416;28;20024;-80
2021/03/10 06:08:30;;;;;;;18.60;12.65;;;2.40;99.90;;;;;;5096562;28;20013;-80
2021/03/10 06:10:56;;;;;;;17.98;12.05;;;2.40;99.90;;;;;;5096583;28;20028;-80
2021/03/10 06:13:24;;;;;;;16.35;12.35;;;2.60;99.90;;;;;;5096392;28;20487;-80
2021/03/10 06:15:52;;;;;;;20.05;12.35;;;2.70;99.90;;;;;;5093908;28;20103;-80
2021/03/10 06:18:31;;;;;;;17.83;12.52;;;2.70;99.90;;;;;;5082494;28;20020;-80
2021/03/10 06:21:07;;;;;;;21.05;12.23;;;2.70;99.90;;;;;;5096108;28;20094;-80
2021/03/10 06:23:34;;;;;;;17.95;12.90;;;2.60;99.90;;;;;;5076373;28;20028;-80
2021/03/10 06:26:02;;;;;;;18.10;12.55;;;2.70;99.90;;;;;;5080620;28;20397;-81
2021/03/10 06:28:35;;;;;;;16.83;12.10;;;2.70;99.90;;;;;;5077218;28;20024;-80
2021/03/10 06:31:01;;;;;;;18.30;12.63;;;2.80;99.90;;;;;;5093627;28;20032;-80
2021/03/10 06:33:26;;;;;;;17.23;12.25;;;3.40;99.90;;;;;;5096034;28;20035;-80
2021/03/10 06:35:52;;;;;;;18.98;12.20;;;2.70;99.90;;;;;;5091368;28;20024;-80
2021/03/10 06:38:19;;;;;;;18.83;12.68;;;2.80;99.90;;;;;;5076081;28;20024;-80
2021/03/10 06:40:53;;;;;;;18.73;12.00;;;3.10;99.90;;;;;;5087754;28;20012;-80
2021/03/10 06:43:20;;;;;;;16.55;11.95;;;2.80;99.90;;;;;;5087518;28;20103;-80
2021/03/10 06:45:46;;;;;;;20.48;13.32;;;2.80;99.90;;;;;;5085192;28;20460;-79
2021/03/10 06:48:22;;;;;;;17.92;12.90;;;3.50;99.90;;;;;;5083571;28;20070;-79
2021/03/10 06:50:48;;;;;;;19.38;13.05;;;3.50;99.90;;;;;;5077348;28;20035;-79
2021/03/10 06:53:14;;;;;;;21.80;13.40;;;2.90;99.90;;;;;;5086645;28;20016;-79
2021/03/10 06:55:45;;;;;;;18.15;12.80;;;3.10;99.90;;;;;;5086860;28;20028;-79
2021/03/10 06:58:21;;;;;;;17.50;12.88;;;3.30;99.90;;;;;;5086336;28;20016;-79
2021/03/10 07:00:47;;;;;;;19.70;13.23;;;3.50;99.90;;;;;;5085874;28;20024;-79
2021/03/10 07:03:14;;;;;;;18.30;12.63;;;3.40;99.90;;;;;;5089775;28;20526;-79
2021/03/10 07:05:41;;;;;;;20.95;13.68;;;3.50;99.90;;;;;;5084207;28;20095;-79
2021/03/10 07:08:07;;;;;;;20.35;13.57;;;3.60;99.90;;;;;;5091451;28;20476;-79
2021/03/10 07:10:35;;;;;;;21.63;14.32;;;4.00;99.90;;;;;;5095392;28;20537;-80
2021/03/10 07:13:00;;;;;;;21.13;14.85;;;3.70;99.90;;;;;;5095490;28;20136;-79
2021/03/10 07:15:28;;;;;;;22.63;14.07;;;3.50;99.90;;;;;;5093516;28;20454;-79
2021/03/10 07:17:54;;;;;;;21.90;14.43;;;3.80;99.90;;;;;;5095621;28;20095;-79
2021/03/10 07:20:21;;;;;;;23.85;14.82;;;3.80;99.90;;;;;;5077401;28;20024;-79
2021/03/10 07:23:10;;;;;;;24.80;14.98;;;4.00;99.90;;;;;;5081578;28;20020;-83
2021/03/10 07:25:42;;;;;;;21.38;14.30;;;4.10;99.90;;;;;;5075295;28;20029;-82
2021/03/10 07:28:18;;;;;;;20.08;14.00;;;4.00;99.90;;;;;;5074715;28;20099;-82
2021/03/10 07:30:46;;;;;;;18.88;13.65;;;4.60;99.90;;;;;;5075267;28;20024;-79
2021/03/10 07:33:16;;;;;;;23.40;14.80;;;4.70;99.90;;;;;;5075213;28;20031;-80
2021/03/10 07:35:54;;;;;;;21.58;13.95;;;4.40;99.90;;;;;;5074846;28;20032;-80
2021/03/10 07:38:23;;;;;;;22.38;13.93;;;4.40;99.90;;;;;;5075017;28;20013;-81
2021/03/10 07:40:55;;;;;;;29.52;15.20;;;4.60;99.90;;;;;;5075031;28;20031;-80
2021/03/10 07:43:21;;;;;;;24.80;15.20;;;4.60;99.90;;;;;;5077153;28;20035;-80
2021/03/10 07:45:47;;;;;;;23.52;15.02;;;5.00;99.90;;;;;;5094871;28;20024;-79
2021/03/10 07:48:12;;;;;;;28.30;15.32;;;4.70;99.90;;;;;;5095439;28;20034;-79
2021/03/10 07:50:41;;;;;;;24.23;16.30;;;4.90;99.90;;;;;;5094670;28;20028;-79
2021/03/10 07:53:07;;;;;;;29.45;15.55;;;5.60;99.90;;;;;;5076778;28;20106;-80
2021/03/10 07:55:47;;;;;;;24.65;14.80;;;5.70;99.90;;;;;;5094850;28;20107;-80
2021/03/10 07:58:26;;;;;;;24.17;15.68;;;5.50;99.90;;;;;;5085410;28;20103;-79
2021/03/10 08:00:51;;;;;;;23.58;16.45;;;5.80;99.90;;;;;;5074564;28;20025;-79
2021/03/10 08:03:33;;;;;;;24.38;15.63;;;5.60;99.90;;;;;;5074196;28;20415;-79
2021/03/10 08:06:12;;;;;;;24.88;16.52;;;5.70;99.90;;;;;;5090638;28;20028;-79
2021/03/10 08:08:43;;;;;;;22.13;14.85;;;5.30;99.90;;;;;;5076612;28;20028;-79
2021/03/10 08:11:14;;;;;;;20.25;14.38;;;5.90;99.90;;;;;;5094423;28;20055;-79
2021/03/10 08:13:41;;;;;;;21.58;13.57;;;5.40;99.90;;;;;;5094439;28;20035;-79
2021/03/10 08:16:10;;;;;;;23.95;14.27;;;5.70;99.90;;;;;;5093759;28;20035;-79
2021/03/10 08:18:39;;;;;;;18.65;13.82;;;5.60;99.90;;;;;;5087400;28;20384;-79
2021/03/10 08:21:16;;;;;;;19.75;13.65;;;5.60;99.90;;;;;;5073990;28;20104;-79
2021/03/10 08:23:42;;;;;;;21.65;14.50;;;5.90;99.90;;;;;;5073979;28;20076;-79
2021/03/10 08:26:08;;;;;;;21.75;14.13;;;6.00;99.90;;;;;;5072660;28;20103;-79
2021/03/10 08:28:35;;;;;;;21.10;14.00;;;6.00;99.90;;;;;;5073378;28;20025;-79
2021/03/10 08:31:03;;;;;;;22.30;14.00;;;6.10;99.90;;;;;;5073312;28;20058;-79
2021/03/10 08:33:30;;;;;;;24.13;14.90;;;6.10;99.90;;;;;;5073192;28;20024;-79
2021/03/10 08:35:56;;;;;;;23.15;14.35;;;6.30;99.90;;;;;;5073134;28;20032;-79
2021/03/10 08:38:22;;;;;;;21.88;14.55;;;6.70;99.90;;;;;;5073202;28;20020;-79
2021/03/10 08:40:48;;;;;;;23.02;14.35;;;6.60;99.90;;;;;;5072694;28;20017;-79
2021/03/10 08:43:20;;;;;;;20.20;13.90;;;6.60;99.90;;;;;;5072970;28;20021;-79
2021/03/10 08:45:46;;;;;;;20.58;13.70;;;6.80;99.90;;;;;;5072912;28;20035;-79
2021/03/10 08:48:14;;;;;;;18.40;13.15;;;7.50;99.90;;;;;;5072908;28;20021;-79
2021/03/10 08:50:47;;;;;;;20.35;14.00;;;7.50;99.90;;;;;;5072845;28;20070;-79
2021/03/10 08:53:14;;;;;;;20.33;12.60;;;10.10;99.90;;;;;;5073203;28;20016;-79
2021/03/10 08:55:41;;;;;;;17.85;12.57;;;14.30;99.90;;;;;;5072392;28;20020;-81
2021/03/10 08:58:11;;;;;;;17.30;12.65;;;16.00;99.90;;;;;;5072873;28;20033;-80
2021/03/10 09:00:38;;;;;;;20.70;13.60;;;18.40;99.90;;;;;;5072786;28;20025;-80
2021/03/10 09:03:19;;;;;;;18.65;13.50;;;19.70;99.90;;;;;;5072563;28;20044;-80
2021/03/10 09:05:46;;;;;;;18.65;13.52;;;20.90;99.90;;;;;;5072795;28;20056;-80
2021/03/10 09:08:14;;;;;;;17.42;13.85;;;20.90;99.90;;;;;;5072482;28;20052;-80
2021/03/10 09:10:49;;;;;;;19.55;13.57;;;20.30;99.90;;;;;;5072191;28;20028;-80
2021/03/10 09:13:17;;;;;;;15.95;13.35;;;21.50;99.90;;;;;;5072645;28;20028;-80
2021/03/10 09:15:43;;;;;;;17.83;13.50;;;23.60;99.90;;;;;;5072428;28;20086;-80
2021/03/10 09:18:09;;;;;;;17.85;14.43;;;23.00;99.90;;;;;;5072591;28;20021;-80
2021/03/10 09:20:43;;;;;;;18.00;14.27;;;23.40;99.90;;;;;;5072181;28;20158;-80
2021/03/10 09:23:09;;;;;;;16.17;14.05;;;24.60;99.90;;;;;;5054453;28;20107;-80
2021/03/10 09:25:37;;;;;;;17.67;14.75;;;24.90;99.90;;;;;;5072206;28;20025;-80
2021/03/10 09:28:16;;;;;;;17.48;14.75;;;25.00;99.90;;;;;;5072407;28;20098;-81
2021/03/10 09:30:44;;;;;;;17.27;14.95;;;25.00;99.90;;;;;;5072333;28;20427;-81
2021/03/10 09:33:19;;;;;;;17.38;15.52;;;25.20;99.90;;;;;;5072308;28;20037;-81
2021/03/10 09:35:54;;;;;;;17.15;15.35;;;26.00;99.90;;;;;;5072122;28;20549;-81
2021/03/10 09:38:21;;;;;;;19.58;15.27;;;26.00;99.90;;;;;;5071427;28;20099;-81
2021/03/10 09:41:07;;;;;;;21.50;16.10;;;25.90;99.90;;;;;;5072178;28;20021;-81
2021/03/10 09:43:34;;;;;;;17.95;16.15;;;26.50;99.90;;;;;;5072008;28;20035;-81
2021/03/10 09:46:01;;;;;;;18.33;16.33;;;26.50;99.90;;;;;;5072280;28;20063;-81
2021/03/10 09:48:33;;;;;;;17.65;15.80;;;25.90;99.90;;;;;;5072385;28;20016;-81
2021/03/10 09:51:16;;;;;;;18.00;16.08;;;25.80;99.90;;;;;;5072413;28;20081;-81
2021/03/10 09:53:44;;;;;;;18.60;16.60;;;26.60;99.90;;;;;;5072013;28;20020;-81
2021/03/10 09:56:11;;;;;;;17.52;15.73;;;27.30;99.90;;;;;;5072028;28;20174;-81
2021/03/10 09:58:54;;;;;;;19.00;16.67;;;27.40;99.90;;;;;;5072187;28;20028;-81
2021/03/10 10:01:20;;;;;;;20.80;17.10;;;26.50;99.90;;;;;;5072122;28;20020;-81
2021/03/10 10:03:45;;;;;;;19.05;17.02;;;28.00;99.90;;;;;;5071720;28;20492;-81
2021/03/10 10:06:12;;;;;;;20.42;16.00;;;28.60;99.90;;;;;;5072115;28;20039;-81
2021/03/10 10:08:38;;;;;;;17.83;15.93;;;28.70;99.90;;;;;;5071750;28;20017;-81
2021/03/10 10:11:05;;;;;;;19.17;16.55;;;28.00;99.90;;;;;;5072122;28;20024;-81
2021/03/10 10:13:31;;;;;;;18.52;15.82;;;28.80;99.90;;;;;;5072032;28;20483;-81
2021/03/10 10:15:56;;;;;;;18.02;16.13;;;28.90;99.90;;;;;;5071885;28;20028;-81
2021/03/10 10:18:23;;;;;;;18.10;16.20;;;29.10;99.90;;;;;;5072040;28;20027;-81
2021/03/10 10:20:49;;;;;;;19.65;16.90;;;28.70;99.90;;;;;;5071884;28;20021;-81
2021/03/10 10:23:15;;;;;;;17.80;15.93;;;28.60;99.90;;;;;;5071607;28;20058;-81
2021/03/10 10:25:41;;;;;;;18.73;16.73;;;28.10;99.90;;;;;;5072009;28;20035;-81
2021/03/10 10:28:07;;;;;;;18.45;16.42;;;27.90;99.90;;;;;;5071819;28;20024;-81
2021/03/10 10:30:32;;;;;;;18.10;16.15;;;30.30;99.90;;;;;;5071752;28;20029;-81
2021/03/10 10:32:58;;;;;;;18.05;16.23;;;30.80;99.90;;;;;;5071641;28;20028;-82
2021/03/10 10:35:24;;;;;;;17.75;15.95;;;31.40;99.90;;;;;;5071725;28;20028;-82
2021/03/10 10:37:49;;;;;;;18.33;16.52;;;31.90;99.90;;;;;;5071388;28;20021;-82
2021/03/10 10:40:18;;;;;;;17.77;16.02;;;31.20;99.90;;;;;;5071929;28;20437;-82
2021/03/10 10:42:45;;;;;;;17.50;15.80;;;29.70;99.90;;;;;;5053660;28;20027;-82
2021/03/10 10:45:11;;;;;;;19.33;16.65;;;31.20;99.90;;;;;;5071725;28;20017;-82
2021/03/10 10:47:37;;;;;;;18.30;16.48;;;32.60;99.90;;;;;;5071898;28;20066;-82
2021/03/10 10:50:05;;;;;;;19.60;17.70;;;33.10;99.90;;;;;;5057225;28;20032;-82
2021/03/10 10:52:32;;;;;;;18.70;16.70;;;34.50;99.90;;;;;;5074961;28;20086;-82
2021/03/10 10:54:58;;;;;;;19.63;17.70;;;34.00;99.90;;;;;;5074971;28;20033;-82
2021/03/10 10:57:24;;;;;;;18.50;16.73;;;33.60;99.90;;;;;;5075226;28;20401;-82
2021/03/10 10:59:49;;;;;;;19.58;17.67;;;32.10;99.90;;;;;;5074982;28;20021;-82
2021/03/10 11:02:15;;;;;;;20.10;18.10;;;31.70;99.90;;;;;;5074896;28;20052;-82
2021/03/10 11:04:41;;;;;;;19.70;17.17;;;30.80;99.90;;;;;;5074983;28;20025;-82
2021/03/10 11:07:07;;;;;;;18.85;16.92;;;30.50;99.90;;;;;;5074613;28;20454;-82
2021/03/10 11:09:40;;;;;;;19.50;17.48;;;31.40;99.90;;;;;;5075008;28;20021;-82
2021/03/10 11:12:08;;;;;;;21.10;18.80;;;30.30;99.90;;;;;;5074982;28;20020;-82
2021/03/10 11:14:34;;;;;;;21.17;18.77;;;28.50;99.90;;;;;;5074767;28;20491;-82
2021/03/10 11:17:00;;;;;;;20.88;18.77;;;30.50;99.90;;;;;;5074647;28;20031;-82
2021/03/10 11:19:25;;;;;;;19.73;17.73;;;31.60;99.90;;;;;;5074572;28;20021;-82
2021/03/10 11:21:51;;;;;;;20.73;18.40;;;31.50;99.90;;;;;;5056310;28;20082;-82
2021/03/10 11:24:17;;;;;;;19.20;17.40;;;32.30;99.90;;;;;;5074784;28;20468;-82
2021/03/10 11:26:43;;;;;;;19.45;17.55;;;31.60;99.90;;;;;;5074459;28;20036;-82
2021/03/10 11:29:09;;;;;;;20.05;18.02;;;31.70;99.90;;;;;;5074431;28;20032;-82
2021/03/10 11:31:35;;;;;;;20.50;18.50;;;33.50;99.90;;;;;;5074595;28;20059;-82
2021/03/10 11:34:01;;;;;;;20.95;18.73;;;34.60;99.90;;;;;;5074247;28;20056;-82
2021/03/10 11:36:27;;;;;;;20.02;18.02;;;34.50;99.90;;;;;;5074207;28;20024;-82
2021/03/10 11:38:53;;;;;;;20.80;18.90;;;34.10;99.90;;;;;;5074110;28;20028;-82
2021/03/10 11:41:18;;;;;;;19.65;17.85;;;34.70;99.90;;;;;;5074474;28;20031;-82
2021/03/10 11:43:44;;;;;;;21.00;18.80;;;34.40;99.90;;;;;;5074347;28;20025;-82
2021/03/10 11:46:10;;;;;;;20.35;18.45;;;34.00;99.90;;;;;;5074302;28;20233;-82
2021/03/10 11:48:35;;;;;;;20.40;18.30;;;34.20;99.90;;;;;;5074080;28;20029;-82
2021/03/10 11:51:01;;;;;;;18.65;16.85;;;34.00;99.90;;;;;;5073985;28;20032;-82
2021/03/10 11:53:27;;;;;;;20.67;18.60;;;34.40;99.90;;;;;;5074093;28;20025;-82
2021/03/10 11:55:52;;;;;;;20.08;18.10;;;33.80;99.90;;;;;;5073782;28;20493;-82
2021/03/10 11:58:19;;;;;;;21.10;19.10;;;34.50;99.90;;;;;;5074015;28;20149;-82
2021/03/10 12:00:44;;;;;;;21.13;19.05;;;34.50;99.90;;;;;;5073320;28;20023;-82
2021/03/10 12:03:10;;;;;;;20.25;18.33;;;34.30;99.90;;;;;;5073416;28;20416;-82
2021/03/10 12:05:36;;;;;;;20.33;18.42;;;34.50;99.90;;;;;;5073929;28;20024;-82
2021/03/10 12:08:02;;;;;;;21.08;19.17;;;34.70;99.90;;;;;;5073784;28;20025;-82
2021/03/10 12:10:28;;;;;;;19.95;18.05;;;35.10;99.90;;;;;;5073655;28;20021;-82
2021/03/10 12:12:54;;;;;;;19.85;18.05;;;34.60;99.90;;;;;;5073539;28;20109;-82
2021/03/10 12:15:19;;;;;;;21.42;19.33;;;34.30;99.90;;;;;;5073591;28;20052;-82
2021/03/10 12:17:46;;;;;;;21.48;19.48;;;33.50;99.90;;;;;;5073425;28;20028;-82
2021/03/10 12:20:12;;;;;;;21.08;18.92;;;32.80;99.90;;;;;;5073621;28;20042;-82
2021/03/10 12:22:38;;;;;;;20.30;18.38;;;33.30;99.90;;;;;;5073524;28;20024;-82
2021/03/10 12:25:05;;;;;;;19.42;17.50;;;34.00;99.90;;;;;;5073432;28;20021;-82
2021/03/10 12:27:31;;;;;;;19.90;17.95;;;35.20;99.90;;;;;;5073557;28;20021;-82
2021/03/10 12:29:57;;;;;;;20.75;18.85;;;35.40;99.90;;;;;;5073336;28;20021;-82
2021/03/10 12:32:24;;;;;;;19.67;17.88;;;34.20;99.90;;;;;;5072975;28;20025;-82
2021/03/10 12:34:51;;;;;;;18.77;17.08;;;33.80;99.90;;;;;;5072941;28;20492;-82
2021/03/10 12:37:17;;;;;;;20.05;18.25;;;34.50;99.90;;;;;;5055137;28;20024;-82